Airport Name : Ataturk

Other Name : Istanbul

ICAO : LTBA

IATA : IST

FAA :

Latitude : 40.976922

Longitude : 28.814606

Country : Turkey

Local Date and Time : 7/16/2019 9:32:00 PM

 

TAF (Terminal Aerodrome Forecast)

TAF LTBA 161640Z 1618/1724 01008KT CAVOK BECMG 1621/1624 SCT035 BECMG 1702/1705 01018KT TEMPO 1707/1711 -SHRA FEW017CB BKN025 BECMG 1712/1715 CAVOK BECMG 1715/1718 01008KT

 

METAR (METeorological Aerodrome Report)

LTBA 161820Z 06012KT CAVOK 24/16 Q1008 NOSIG RMK RWY17L 04012KT RWY05 04013KT RWY23 06014KT

LTBA 161750Z 06013KT CAVOK 24/15 Q1008 NOSIG RMK RWY17L 04012KT RWY05 04013KT RWY23 06013KT

LTBA 161720Z 05012KT 020V080 CAVOK 24/15 Q1008 NOSIG RMK RWY17L 05012KT RWY05 03013KT RWY23 06012KT 020V080

LTBA 161650Z 04013KT CAVOK 25/15 Q1008 NOSIG RMK RWY17L 04014KT RWY05 04013KT RWY23 06015KT

LTBA 161620Z 02014KT CAVOK 25/15 Q1008 NOSIG RMK RWY17L 04013KT RWY05 02014KT RWY23 05014KT 020V080

LTBA 161550Z 02015KT CAVOK 26/14 Q1008 NOSIG RMK RWY17L 04015KT RWY05 03015KT RWY23 05014KT 020V090

LTBA 161520Z 05015KT CAVOK 27/13 Q1008 NOSIG RMK RWY17L 05014KT RWY05 02015KT RWY23 04014KT

LTBA 161450Z 05015KT CAVOK 27/13 Q1008 NOSIG RMK RWY17L 04013KT 360V070 RWY05 03016KT RWY23 04015KT 020V080